Time;durP1;ratioP1;P1;durP2;ratioP2;P2;SDS_P1;SDS_P2;PMS_P1;PMS_P2;Temp;Humidity;BMP_temperature;BMP_pressure;BME280_temperature;BME280_humidity;BME280_pressure;Samples;Min_cycle;Max_cycle;Signal;HPM_P1;HPM_P2
2021/07/10 00:00:29;;;;;;;18.35;14.23;;;18.20;86.20;;;;;;4930062;29;20036;-85
2021/07/10 00:02:55;;;;;;;17.75;13.27;;;18.20;85.80;;;;;;4930137;29;20682;-85
2021/07/10 00:05:21;;;;;;;15.57;13.57;;;18.20;86.10;;;;;;4930337;29;20211;-85
2021/07/10 00:07:46;;;;;;;16.40;12.63;;;18.20;86.10;;;;;;4929910;29;20038;-85
2021/07/10 00:10:14;;;;;;;21.35;15.57;;;18.10;86.20;;;;;;4930600;29;20030;-85
2021/07/10 00:12:39;;;;;;;19.70;14.27;;;18.10;85.90;;;;;;4930256;29;20038;-85
2021/07/10 00:15:06;;;;;;;18.00;14.20;;;18.00;86.50;;;;;;4930255;29;20032;-85
2021/07/10 00:17:32;;;;;;;17.10;13.70;;;18.00;86.10;;;;;;4946013;29;20043;-85
2021/07/10 00:19:58;;;;;;;18.13;13.38;;;18.00;86.20;;;;;;4930470;29;20028;-85
2021/07/10 00:22:23;;;;;;;19.92;14.30;;;17.90;86.00;;;;;;4929772;29;20035;-85
2021/07/10 00:24:49;;;;;;;18.98;14.10;;;17.90;86.30;;;;;;4930090;29;20035;-85
2021/07/10 00:27:14;;;;;;;19.17;14.93;;;17.90;86.40;;;;;;4929490;29;20115;-85
2021/07/10 00:29:40;;;;;;;16.92;13.55;;;17.90;87.10;;;;;;4929737;29;20024;-85
2021/07/10 00:32:06;;;;;;;19.13;14.30;;;17.80;86.70;;;;;;4945977;29;20039;-85
2021/07/10 00:34:31;;;;;;;19.80;13.65;;;17.80;86.40;;;;;;4929462;29;20031;-85
2021/07/10 00:36:57;;;;;;;17.05;13.95;;;17.80;86.80;;;;;;4929713;29;20491;-85
2021/07/10 00:39:22;;;;;;;14.98;12.63;;;17.80;86.60;;;;;;4945034;29;20058;-85
2021/07/10 00:41:48;;;;;;;18.42;12.95;;;17.80;86.80;;;;;;4929329;29;20027;-85
2021/07/10 00:44:13;;;;;;;16.75;13.57;;;17.80;86.90;;;;;;4945434;29;20055;-85
2021/07/10 00:46:39;;;;;;;21.25;14.88;;;17.80;86.40;;;;;;4929610;29;20391;-85
2021/07/10 00:49:05;;;;;;;15.80;14.10;;;17.70;86.80;;;;;;4929277;29;20039;-85
2021/07/10 00:51:30;;;;;;;16.90;13.02;;;17.70;86.40;;;;;;4929576;29;20547;-85
2021/07/10 00:53:56;;;;;;;15.50;13.07;;;17.70;86.60;;;;;;4929364;29;20035;-85
2021/07/10 00:56:21;;;;;;;17.05;12.55;;;17.60;85.90;;;;;;4945376;29;20439;-85
2021/07/10 00:58:48;;;;;;;17.60;13.85;;;17.70;87.10;;;;;;4928643;29;20083;-85
2021/07/10 01:01:13;;;;;;;18.55;14.25;;;17.60;86.60;;;;;;4945478;29;20082;-85
2021/07/10 01:03:44;;;;;;;17.55;13.63;;;17.60;86.60;;;;;;4929758;29;20032;-85
2021/07/10 01:06:10;;;;;;;16.88;14.35;;;17.50;86.80;;;;;;4929497;29;20484;-85
2021/07/10 01:08:35;;;;;;;18.92;14.52;;;17.50;87.10;;;;;;4932025;29;20039;-85
2021/07/10 01:11:01;;;;;;;16.52;13.73;;;17.50;87.10;;;;;;4932347;28;20078;-85
2021/07/10 01:13:27;;;;;;;19.35;14.27;;;17.50;87.00;;;;;;4932330;29;20038;-85
2021/07/10 01:15:52;;;;;;;21.73;15.07;;;17.40;86.50;;;;;;4916493;29;20470;-84
2021/07/10 01:18:18;;;;;;;18.42;14.30;;;17.40;86.10;;;;;;4931683;29;20037;-85
2021/07/10 01:20:52;;;;;;;17.63;14.02;;;17.40;86.70;;;;;;4916500;29;20588;-85
2021/07/10 01:23:17;;;;;;;21.27;14.60;;;17.40;86.80;;;;;;4933459;28;20039;-85
2021/07/10 01:25:43;;;;;;;16.77;13.77;;;17.30;86.60;;;;;;4932169;29;20498;-85
2021/07/10 01:28:09;;;;;;;18.02;14.38;;;17.30;87.00;;;;;;4916408;29;20027;-84
2021/07/10 01:30:35;;;;;;;18.08;14.48;;;17.30;87.20;;;;;;4916414;29;20027;-85
2021/07/10 01:33:01;;;;;;;20.40;15.05;;;17.40;87.50;;;;;;4932591;28;20751;-85
2021/07/10 01:35:26;;;;;;;20.45;15.75;;;17.30;87.90;;;;;;4932332;28;20055;-85
2021/07/10 01:37:52;;;;;;;19.85;14.75;;;17.40;88.80;;;;;;4931693;29;20031;-85
2021/07/10 01:40:18;;;;;;;20.98;15.13;;;17.30;88.50;;;;;;4931956;29;20043;-84
2021/07/10 01:42:44;;;;;;;21.67;15.45;;;17.30;88.40;;;;;;4932262;29;20041;-85
2021/07/10 01:45:10;;;;;;;19.25;14.95;;;17.30;88.20;;;;;;4932317;29;20031;-85
2021/07/10 01:47:36;;;;;;;18.27;15.30;;;17.20;88.40;;;;;;4932079;29;20015;-85
2021/07/10 01:50:06;;;;;;;20.73;15.43;;;17.20;88.50;;;;;;4932015;29;20028;-85
2021/07/10 01:52:32;;;;;;;18.55;15.32;;;17.20;89.00;;;;;;4932980;29;20038;-84
2021/07/10 01:54:57;;;;;;;22.45;14.90;;;17.20;88.20;;;;;;4931986;29;20031;-85
2021/07/10 01:57:23;;;;;;;23.70;15.32;;;17.10;88.20;;;;;;4931956;28;20027;-85
2021/07/10 01:59:48;;;;;;;19.77;14.75;;;17.20;88.00;;;;;;4934954;29;20035;-85
2021/07/10 02:02:14;;;;;;;17.58;14.30;;;17.10;87.60;;;;;;4935601;29;20031;-85
2021/07/10 02:04:50;;;;;;;23.13;15.60;;;17.00;87.80;;;;;;4935644;29;20023;-85
2021/07/10 02:07:16;;;;;;;18.88;14.70;;;17.00;87.60;;;;;;4936184;29;20074;-85
2021/07/10 02:09:41;;;;;;;19.75;15.25;;;17.00;87.50;;;;;;4935382;29;20030;-85
2021/07/10 02:12:07;;;;;;;20.02;14.95;;;17.00;87.60;;;;;;4935619;29;20039;-85
2021/07/10 02:14:33;;;;;;;25.13;16.35;;;17.00;87.80;;;;;;4935624;29;20078;-85
2021/07/10 02:16:59;;;;;;;18.77;15.40;;;17.00;88.50;;;;;;4935405;28;20039;-85
2021/07/10 02:19:24;;;;;;;21.00;15.38;;;16.90;88.70;;;;;;4950978;28;20053;-85
2021/07/10 02:21:50;;;;;;;17.45;14.93;;;17.00;87.60;;;;;;4935076;29;20042;-84
2021/07/10 02:24:16;;;;;;;18.73;14.52;;;16.90;87.50;;;;;;4935131;29;20816;-84
2021/07/10 02:26:41;;;;;;;22.40;15.77;;;16.90;87.70;;;;;;4919196;29;20023;-84
2021/07/10 02:29:07;;;;;;;21.55;16.17;;;16.90;87.20;;;;;;4935085;29;20065;-84
2021/07/10 02:31:34;;;;;;;21.23;16.15;;;16.80;87.30;;;;;;4935137;28;20027;-85
2021/07/10 02:33:59;;;;;;;20.92;15.23;;;16.80;87.80;;;;;;4934894;29;20082;-84
2021/07/10 02:36:25;;;;;;;19.00;14.93;;;16.80;87.20;;;;;;4935418;29;20505;-84
2021/07/10 02:38:50;;;;;;;19.42;15.38;;;16.80;88.00;;;;;;4934638;29;20679;-83
2021/07/10 02:41:16;;;;;;;17.58;14.50;;;16.80;87.30;;;;;;4934742;29;20526;-81
2021/07/10 02:43:41;;;;;;;21.38;16.13;;;16.80;87.60;;;;;;4919528;29;20034;-85
2021/07/10 02:46:08;;;;;;;19.05;15.57;;;16.80;87.60;;;;;;4935252;29;20031;-84
2021/07/10 02:48:33;;;;;;;24.48;14.63;;;16.70;88.10;;;;;;4934973;28;20110;-85
2021/07/10 02:50:59;;;;;;;18.90;15.70;;;16.70;87.60;;;;;;4934823;29;20103;-84
2021/07/10 02:53:24;;;;;;;22.92;16.55;;;16.70;87.90;;;;;;4934537;29;20057;-85
2021/07/10 02:55:50;;;;;;;22.15;15.82;;;16.70;87.70;;;;;;4918927;29;20027;-84
2021/07/10 02:58:15;;;;;;;22.13;15.85;;;16.70;88.00;;;;;;4918588;29;20031;-85
2021/07/10 03:00:41;;;;;;;19.90;15.27;;;16.70;87.70;;;;;;4934592;29;20447;-85
2021/07/10 03:03:06;;;;;;;21.10;15.23;;;16.70;88.40;;;;;;4934636;28;20606;-85
2021/07/10 03:05:33;;;;;;;19.67;15.20;;;16.70;87.80;;;;;;4934428;29;20062;-84
2021/07/10 03:08:00;;;;;;;22.30;17.45;;;16.70;87.90;;;;;;4931070;29;20027;-84
2021/07/10 03:10:27;;;;;;;21.42;16.63;;;16.70;87.60;;;;;;4915214;29;20032;-85
2021/07/10 03:12:52;;;;;;;30.35;17.05;;;16.70;88.00;;;;;;4915666;29;20038;-85
2021/07/10 03:15:18;;;;;;;21.65;16.80;;;16.80;87.90;;;;;;4899714;29;20031;-85
2021/07/10 03:17:44;;;;;;;22.95;16.85;;;16.70;88.20;;;;;;4915306;29;20115;-85
2021/07/10 03:20:11;;;;;;;26.27;18.10;;;16.80;88.20;;;;;;4915428;29;20028;-85
2021/07/10 03:22:37;;;;;;;23.45;17.65;;;16.70;87.70;;;;;;4915301;29;20034;-85
2021/07/10 03:25:06;;;;;;;21.25;17.13;;;16.70;87.60;;;;;;4915292;29;20032;-84
2021/07/10 03:27:32;;;;;;;22.10;16.92;;;16.70;88.20;;;;;;4899367;29;20043;-84
2021/07/10 03:29:58;;;;;;;26.30;17.33;;;16.70;87.70;;;;;;4899014;29;20031;-84
2021/07/10 03:32:23;;;;;;;21.83;15.98;;;16.60;87.60;;;;;;4915244;29;20035;-85
2021/07/10 03:34:49;;;;;;;23.67;15.10;;;16.70;88.10;;;;;;4915264;29;20035;-85
2021/07/10 03:37:14;;;;;;;20.15;15.75;;;16.60;88.00;;;;;;4914969;29;20079;-85
2021/07/10 03:39:40;;;;;;;20.92;15.00;;;16.60;88.20;;;;;;4914857;29;20395;-85
2021/07/10 03:42:05;;;;;;;21.27;14.93;;;16.60;88.10;;;;;;4899147;29;20037;-84
2021/07/10 03:44:31;;;;;;;21.08;15.82;;;16.60;88.40;;;;;;4962794;23;20062;-87
2021/07/10 03:46:57;;;;;;;20.83;14.88;;;16.60;88.30;;;;;;4976136;28;20027;-87
2021/07/10 03:49:22;;;;;;;19.80;14.52;;;16.70;88.60;;;;;;4967842;28;20031;-87
2021/07/10 03:51:48;;;;;;;20.35;15.10;;;16.60;88.30;;;;;;4952655;28;20027;-87
2021/07/10 03:54:13;;;;;;;19.65;14.23;;;16.70;88.70;;;;;;4952518;28;20070;-87
2021/07/10 03:56:39;;;;;;;22.42;15.07;;;16.70;88.50;;;;;;4968364;28;20111;-87
2021/07/10 03:59:04;;;;;;;19.35;14.02;;;16.70;88.60;;;;;;4968385;28;20405;-86
2021/07/10 04:01:32;;;;;;;17.05;13.77;;;16.70;88.70;;;;;;4968626;28;20482;-86
2021/07/10 04:03:58;;;;;;;18.83;14.32;;;16.70;88.80;;;;;;4968431;28;20027;-87
2021/07/10 04:06:23;;;;;;;16.70;13.45;;;16.60;88.60;;;;;;4952191;28;20031;-87
2021/07/10 04:08:49;;;;;;;17.48;13.00;;;16.70;88.90;;;;;;4968372;28;20038;-87
2021/07/10 04:11:14;;;;;;;17.55;13.40;;;16.70;88.90;;;;;;4968580;28;20113;-86
2021/07/10 04:13:40;;;;;;;21.83;13.68;;;16.70;89.00;;;;;;4968543;28;20493;-87
2021/07/10 04:16:05;;;;;;;15.43;12.25;;;16.70;89.30;;;;;;4952379;28;20612;-87
2021/07/10 04:18:32;;;;;;;18.83;13.20;;;16.70;89.10;;;;;;4952072;28;20033;-86
2021/07/10 04:20:57;;;;;;;19.13;13.57;;;16.70;89.00;;;;;;4967971;28;20178;-87
2021/07/10 04:23:25;;;;;;;16.92;13.30;;;16.80;89.00;;;;;;4952005;28;20121;-87
2021/07/10 04:25:51;;;;;;;19.38;14.18;;;16.80;89.20;;;;;;4984519;28;20035;-86
2021/07/10 04:28:16;;;;;;;26.95;17.08;;;16.80;89.40;;;;;;4968083;28;20027;-86
2021/07/10 04:30:42;;;;;;;22.30;15.23;;;16.90;89.90;;;;;;4951884;28;20029;-86
2021/07/10 04:33:07;;;;;;;19.85;15.52;;;16.90;89.90;;;;;;4968110;28;20109;-87
2021/07/10 04:35:33;;;;;;;20.60;17.25;;;16.90;89.90;;;;;;4968233;28;20042;-88
2021/07/10 04:37:58;;;;;;;20.77;16.85;;;17.00;90.00;;;;;;4967816;28;20109;-86
2021/07/10 04:40:24;;;;;;;22.30;17.80;;;17.00;90.10;;;;;;4983749;28;20137;-87
2021/07/10 04:42:49;;;;;;;24.13;17.45;;;17.10;90.10;;;;;;4967953;28;20031;-87
2021/07/10 04:45:15;;;;;;;27.25;19.00;;;17.10;90.10;;;;;;4967565;28;20030;-87
2021/07/10 04:47:41;;;;;;;25.08;19.05;;;17.20;90.10;;;;;;4967609;28;20031;-87
2021/07/10 04:50:08;;;;;;;26.90;19.38;;;17.20;90.20;;;;;;4967710;28;20029;-87
2021/07/10 04:52:33;;;;;;;29.05;20.50;;;17.20;90.20;;;;;;4967732;28;20140;-87
2021/07/10 04:54:59;;;;;;;29.67;21.60;;;17.30;90.30;;;;;;4951575;28;20206;-87
2021/07/10 04:57:24;;;;;;;29.17;21.02;;;17.30;90.30;;;;;;4967122;28;20054;-86
2021/07/10 04:59:49;;;;;;;25.90;19.40;;;17.30;90.30;;;;;;4951457;28;20070;-87
2021/07/10 05:02:15;;;;;;;30.23;20.73;;;17.40;90.40;;;;;;4967642;28;20116;-86
2021/07/10 05:04:41;;;;;;;33.92;21.85;;;17.40;90.40;;;;;;4951333;28;20629;-86
2021/07/10 05:07:06;;;;;;;26.65;21.75;;;17.40;90.50;;;;;;4967195;28;20466;-87
2021/07/10 05:09:32;;;;;;;28.60;20.60;;;17.50;90.60;;;;;;4967467;28;20023;-87
2021/07/10 05:11:57;;;;;;;30.63;21.25;;;17.50;90.60;;;;;;4967537;28;20023;-86
2021/07/10 05:14:23;;;;;;;31.55;21.65;;;17.50;90.50;;;;;;4967261;28;20089;-87
2021/07/10 05:16:49;;;;;;;26.48;19.40;;;17.60;90.50;;;;;;4967814;28;20173;-87
2021/07/10 05:19:15;;;;;;;30.55;21.77;;;17.60;90.40;;;;;;4967343;28;20019;-87
2021/07/10 05:21:40;;;;;;;34.35;21.58;;;17.60;90.40;;;;;;4967392;28;20493;-86
2021/07/10 05:24:06;;;;;;;30.52;22.73;;;17.60;90.50;;;;;;4967115;28;20509;-86
2021/07/10 05:26:31;;;;;;;29.23;22.38;;;17.60;90.40;;;;;;4967576;28;20031;-87
2021/07/10 05:28:57;;;;;;;28.50;21.67;;;17.70;90.60;;;;;;4967198;28;20031;-87
2021/07/10 05:31:22;;;;;;;37.88;23.27;;;17.70;90.50;;;;;;4966742;28;20100;-86
2021/07/10 05:33:48;;;;;;;34.53;26.00;;;17.70;90.50;;;;;;4968906;28;20109;-87
2021/07/10 05:36:13;;;;;;;43.22;28.48;;;17.70;90.50;;;;;;4972705;28;20084;-86
2021/07/10 05:38:39;;;;;;;39.40;28.38;;;17.70;90.50;;;;;;4970946;28;20121;-86
2021/07/10 05:41:04;;;;;;;46.40;31.05;;;17.70;90.60;;;;;;4971018;28;20081;-86
2021/07/10 05:43:30;;;;;;;47.85;31.13;;;17.70;90.60;;;;;;4971064;28;20393;-86
2021/07/10 05:45:55;;;;;;;45.22;32.58;;;17.80;90.50;;;;;;4971141;28;20046;-86
2021/07/10 05:48:21;;;;;;;42.75;30.83;;;17.80;90.50;;;;;;4970756;28;20033;-86
2021/07/10 05:50:47;;;;;;;44.03;30.50;;;17.70;90.50;;;;;;4954582;28;20037;-87
2021/07/10 05:53:12;;;;;;;46.03;28.73;;;17.80;90.50;;;;;;4971212;28;20510;-86
2021/07/10 05:55:38;;;;;;;42.38;30.27;;;17.80;90.50;;;;;;4971117;28;20465;-87
2021/07/10 05:58:04;;;;;;;40.05;26.27;;;17.90;90.30;;;;;;4970810;28;20030;-87
2021/07/10 06:00:31;;;;;;;38.05;27.35;;;17.90;90.40;;;;;;4971065;28;20367;-86
2021/07/10 06:02:57;;;;;;;32.67;24.15;;;18.00;90.20;;;;;;4970778;28;20522;-87
2021/07/10 06:05:22;;;;;;;33.45;24.92;;;18.00;90.30;;;;;;4970790;28;20042;-87
2021/07/10 06:07:48;;;;;;;35.17;22.77;;;18.00;90.10;;;;;;4970127;28;20031;-87
2021/07/10 06:10:13;;;;;;;29.23;20.65;;;18.00;90.00;;;;;;4986948;28;20367;-86
2021/07/10 06:12:39;;;;;;;24.15;19.23;;;18.10;90.00;;;;;;4970527;28;20035;-87
2021/07/10 06:15:06;;;;;;;30.92;19.58;;;18.10;90.00;;;;;;4970602;28;20762;-87
2021/07/10 06:17:31;;;;;;;26.48;17.75;;;18.20;89.70;;;;;;4970340;28;20510;-87
2021/07/10 06:19:57;;;;;;;28.08;16.45;;;18.20;89.50;;;;;;4970479;28;20039;-87
2021/07/10 06:22:22;;;;;;;23.73;15.13;;;18.30;88.90;;;;;;4970320;28;20027;-87
2021/07/10 06:24:48;;;;;;;20.35;14.15;;;18.30;87.90;;;;;;4970410;28;20022;-87
2021/07/10 06:27:13;;;;;;;23.55;14.65;;;18.30;88.10;;;;;;4969800;28;20569;-87
2021/07/10 06:29:39;;;;;;;18.08;13.55;;;18.30;88.10;;;;;;4970357;28;20033;-86
2021/07/10 06:32:07;;;;;;;18.40;12.80;;;18.40;88.30;;;;;;4954229;28;20058;-87
2021/07/10 06:34:33;;;;;;;18.48;12.40;;;18.40;87.90;;;;;;4954205;28;20030;-86
2021/07/10 06:36:59;;;;;;;15.45;12.32;;;18.50;87.70;;;;;;4970223;28;20023;-87
2021/07/10 06:39:24;;;;;;;18.98;12.80;;;18.50;87.80;;;;;;4969828;28;20049;-86
2021/07/10 06:41:50;;;;;;;15.50;12.23;;;18.50;87.50;;;;;;4969939;28;20042;-86
2021/07/10 06:44:15;;;;;;;18.02;11.80;;;18.50;86.70;;;;;;4969256;28;20038;-87
2021/07/10 06:46:41;;;;;;;18.67;11.25;;;18.60;86.00;;;;;;4970119;28;20113;-87
2021/07/10 06:49:06;;;;;;;16.40;11.13;;;18.60;85.60;;;;;;4970005;28;20180;-86
2021/07/10 06:51:32;;;;;;;15.32;10.25;;;18.60;85.70;;;;;;4953944;28;20034;-86
2021/07/10 06:53:58;;;;;;;16.20;10.68;;;18.60;85.80;;;;;;4986058;28;20031;-86
2021/07/10 06:56:23;;;;;;;17.20;10.43;;;18.70;84.80;;;;;;4970219;28;20031;-86
2021/07/10 06:58:49;;;;;;;15.77;10.27;;;18.70;84.40;;;;;;4969950;28;20030;-86
2021/07/10 07:01:16;;;;;;;13.88;9.73;;;18.70;84.30;;;;;;4969856;28;20113;-86
2021/07/10 07:03:45;;;;;;;14.88;10.43;;;18.80;84.90;;;;;;4968486;28;20031;-86
2021/07/10 07:06:10;;;;;;;13.98;10.48;;;18.80;85.80;;;;;;4969204;28;20023;-86
2021/07/10 07:08:36;;;;;;;13.63;11.30;;;18.90;86.70;;;;;;4969314;28;20061;-86
2021/07/10 07:11:01;;;;;;;13.20;9.93;;;18.90;86.30;;;;;;4953811;28;20031;-86
2021/07/10 07:13:27;;;;;;;16.25;10.73;;;18.90;86.30;;;;;;4953483;28;20042;-86
2021/07/10 07:15:52;;;;;;;17.70;10.93;;;19.00;85.60;;;;;;4969899;28;20082;-86
2021/07/10 07:18:18;;;;;;;16.80;11.43;;;19.00;84.20;;;;;;4969620;28;20618;-86
2021/07/10 07:20:43;;;;;;;16.13;10.95;;;19.00;84.40;;;;;;4969706;28;20459;-87
2021/07/10 07:23:09;;;;;;;15.35;9.40;;;19.00;84.60;;;;;;4952707;28;20026;-86
2021/07/10 09:56:10;;;;;;;9.60;7.05;;;21.00;74.20;;;;;;4958750;28;20048;-87
2021/07/10 09:58:36;;;;;;;9.85;8.20;;;21.00;74.60;;;;;;4963352;28;20038;-86
2021/07/10 10:01:40;;;;;;;15.75;9.38;;;21.00;74.20;;;;;;4947448;29;20116;-87
2021/07/10 10:04:29;;;;;;;12.05;7.60;;;21.00;73.90;;;;;;4896424;29;20040;-87
2021/07/10 10:06:55;;;;;;;10.65;7.75;;;21.10;73.70;;;;;;4875123;29;20501;-87
2021/07/10 10:09:22;;;;;;;9.32;7.50;;;21.10;73.50;;;;;;4890827;29;20043;-87
2021/07/10 10:11:57;;;;;;;11.63;8.02;;;21.10;73.70;;;;;;4929974;29;20147;-87
2021/07/10 10:14:23;;;;;;;10.75;8.00;;;21.20;72.90;;;;;;4930797;29;20038;-87
2021/07/10 10:16:49;;;;;;;14.38;8.10;;;21.20;72.50;;;;;;4930380;29;20036;-86
2021/07/10 10:19:16;;;;;;;11.27;7.47;;;21.20;72.20;;;;;;4930491;29;20039;-87
2021/07/10 10:21:43;;;;;;;13.63;7.80;;;21.20;72.40;;;;;;4933326;29;20031;-87
2021/07/10 10:24:09;;;;;;;9.75;7.65;;;21.20;73.00;;;;;;4933690;29;20513;-86
2021/07/10 10:26:35;;;;;;;11.02;7.60;;;21.20;72.50;;;;;;4933598;29;20511;-87
2021/07/10 10:29:00;;;;;;;11.68;8.23;;;21.30;72.50;;;;;;4933368;29;20031;-87
2021/07/10 10:31:26;;;;;;;10.82;8.00;;;21.20;72.30;;;;;;4933469;29;20034;-86
2021/07/10 10:33:51;;;;;;;9.10;6.75;;;21.20;71.90;;;;;;4933528;29;20062;-86
2021/07/10 10:36:22;;;;;;;8.07;6.57;;;21.30;73.00;;;;;;4933149;29;20067;-87
2021/07/10 10:38:47;;;;;;;10.23;7.25;;;21.40;73.80;;;;;;4933107;29;20027;-86
2021/07/10 10:41:13;;;;;;;11.23;7.57;;;21.40;72.90;;;;;;4932983;29;20028;-87
2021/07/10 10:43:38;;;;;;;9.73;7.18;;;21.40;71.70;;;;;;4933266;29;20035;-86
2021/07/10 10:46:19;;;;;;;10.38;7.15;;;21.40;72.70;;;;;;4932919;29;20056;-87
2021/07/10 10:48:45;;;;;;;10.10;6.88;;;21.50;72.70;;;;;;4932700;29;20024;-87
2021/07/10 10:51:23;;;;;;;12.63;7.32;;;21.50;72.70;;;;;;4932861;29;20174;-86
2021/07/10 10:53:49;;;;;;;11.93;6.85;;;21.60;72.50;;;;;;4948554;28;20517;-87
2021/07/10 10:56:36;;;;;;;11.25;7.25;;;21.60;73.90;;;;;;4933008;29;20506;-87
2021/07/10 10:59:38;;;;;;;8.85;6.80;;;21.60;73.60;;;;;;4948748;29;20035;-87
2021/07/10 11:02:26;;;;;;;9.52;7.03;;;21.70;74.10;;;;;;4935457;29;20712;-87
2021/07/10 11:04:57;;;;;;;11.57;7.43;;;21.80;73.00;;;;;;4948661;28;20047;-86
2021/07/10 11:07:27;;;;;;;9.10;7.15;;;21.80;71.40;;;;;;4948219;29;20094;-87
2021/07/10 11:10:07;;;;;;;7.68;6.57;;;21.80;71.70;;;;;;4932746;29;20031;-87
2021/07/10 11:12:48;;;;;;;8.45;6.32;;;21.80;70.60;;;;;;4933083;29;20515;-87
2021/07/10 11:15:30;;;;;;;10.55;6.15;;;21.80;70.00;;;;;;4948473;29;20038;-87
2021/07/10 11:17:56;;;;;;;13.90;7.25;;;21.80;70.60;;;;;;4947735;29;20123;-86
2021/07/10 11:20:51;;;;;;;7.97;6.53;;;21.90;70.70;;;;;;4932639;29;20051;-87
2021/07/10 11:23:17;;;;;;;8.77;6.47;;;21.90;71.00;;;;;;4943768;28;20036;-87
2021/07/10 11:25:45;;;;;;;10.23;6.20;;;21.90;70.90;;;;;;4933550;29;20034;-86
2021/07/10 11:28:18;;;;;;;9.75;6.60;;;21.90;69.60;;;;;;4947782;29;20027;-86
2021/07/10 11:30:45;;;;;;;9.07;5.97;;;22.00;70.00;;;;;;4931026;29;20024;-87
2021/07/10 11:33:11;;;;;;;8.93;5.97;;;22.00;70.50;;;;;;4932029;29;20039;-86
2021/07/10 11:35:38;;;;;;;9.25;5.25;;;22.00;68.20;;;;;;4932292;29;20027;-86
2021/07/10 11:38:04;;;;;;;6.57;5.32;;;22.10;67.70;;;;;;4931681;29;20166;-86
2021/07/10 11:40:40;;;;;;;7.75;5.70;;;22.20;68.90;;;;;;4931809;29;20110;-87
2021/07/10 11:43:07;;;;;;;7.75;6.13;;;22.10;68.20;;;;;;4931968;29;20490;-86
2021/07/10 11:45:32;;;;;;;8.20;5.47;;;22.20;67.10;;;;;;4931401;29;20031;-86
2021/07/10 11:48:00;;;;;;;9.02;5.65;;;22.20;65.80;;;;;;4931412;29;20031;-87
2021/07/10 11:50:26;;;;;;;9.07;5.28;;;22.30;65.50;;;;;;4931774;29;20040;-86
2021/07/10 11:53:05;;;;;;;6.30;5.32;;;22.30;64.80;;;;;;4931382;29;20031;-86
2021/07/10 11:55:33;;;;;;;7.55;5.30;;;22.30;66.10;;;;;;4931080;29;20039;-87
2021/07/10 11:58:01;;;;;;;7.82;5.68;;;22.40;66.00;;;;;;4931024;29;20054;-87
2021/07/10 12:00:27;;;;;;;9.00;5.60;;;22.40;64.10;;;;;;4931715;29;20547;-87
2021/07/10 12:02:52;;;;;;;8.57;6.38;;;22.40;65.40;;;;;;4930887;29;20112;-87
2021/07/10 12:05:19;;;;;;;9.07;6.18;;;22.40;67.30;;;;;;4931528;29;20074;-86
2021/07/10 12:07:51;;;;;;;9.10;6.82;;;22.40;69.60;;;;;;4931350;29;20039;-87
2021/07/10 12:10:25;;;;;;;;;;;22.40;69.60;;;;;;4947793;29;20031;-86
2021/07/10 12:12:54;;;;;;;7.45;5.78;;;22.50;69.40;;;;;;4947238;29;19910;-86
2021/07/10 12:16:01;;;;;;;7.75;6.32;;;22.40;69.70;;;;;;4931870;29;20106;-87
2021/07/10 12:18:28;;;;;;;9.73;6.45;;;22.40;69.90;;;;;;4910461;29;20060;-86
2021/07/10 12:21:00;;;;;;;7.50;6.07;;;22.40;70.20;;;;;;4926473;29;20818;-88
2021/07/10 12:23:27;;;;;;;8.18;5.80;;;22.30;71.50;;;;;;4936729;28;20047;-86
2021/07/10 12:26:00;;;;;;;7.10;5.85;;;22.30;71.60;;;;;;4931426;29;20082;-86
2021/07/10 12:28:35;;;;;;;7.85;6.07;;;22.20;69.90;;;;;;4930682;29;20027;-86
2021/07/10 12:31:05;;;;;;;6.93;5.38;;;22.20;69.90;;;;;;4947008;29;20451;-86
2021/07/10 12:33:50;;;;;;;8.57;5.90;;;22.10;71.20;;;;;;4930795;29;20054;-86
2021/07/10 12:36:32;;;;;;;8.32;6.03;;;22.10;69.20;;;;;;4930888;29;20486;-87
2021/07/10 12:39:00;;;;;;;8.75;5.90;;;22.00;70.10;;;;;;4931577;29;20157;-86
2021/07/10 12:41:34;;;;;;;7.05;5.97;;;22.00;72.90;;;;;;4945893;29;20083;-86
2021/07/10 12:44:24;;;;;;;21.20;6.70;;;22.00;73.80;;;;;;4930063;29;20529;-85
2021/07/10 12:47:09;;;;;;;8.23;6.18;;;21.90;73.20;;;;;;4945847;29;20178;-87
2021/07/10 12:49:51;;;;;;;8.43;5.93;;;21.90;73.70;;;;;;4929597;29;20066;-86
2021/07/10 12:52:20;;;;;;;8.38;6.57;;;21.80;74.80;;;;;;4931994;29;20098;-87
2021/07/10 12:55:14;;;;;;;8.15;6.18;;;21.80;75.70;;;;;;4929482;29;20050;-86
2021/07/10 12:57:40;;;;;;;10.07;7.05;;;21.70;75.30;;;;;;4942460;29;20044;-87
2021/07/10 13:00:13;;;;;;;7.60;6.60;;;21.70;74.90;;;;;;4929338;29;20136;-87
2021/07/10 13:02:47;;;;;;;10.02;7.63;;;21.70;75.20;;;;;;4929265;29;20035;-87
2021/07/10 13:05:16;;;;;;;9.80;6.88;;;21.70;72.00;;;;;;4929580;29;20023;-87
2021/07/10 13:07:42;;;;;;;9.05;7.15;;;21.60;69.80;;;;;;4944860;29;20119;-88
2021/07/10 13:10:09;;;;;;;7.60;6.38;;;21.70;73.10;;;;;;4929296;29;20119;-87
2021/07/10 13:12:42;;;;;;;8.85;6.65;;;21.70;74.70;;;;;;4929416;29;20028;-87
2021/07/10 13:15:09;;;;;;;9.65;7.10;;;21.70;75.80;;;;;;4929165;29;20035;-87
2021/07/10 13:17:34;;;;;;;8.98;6.50;;;21.70;75.70;;;;;;4928901;29;20566;-87
2021/07/10 13:20:00;;;;;;;15.13;7.63;;;21.80;75.60;;;;;;4929249;29;20064;-87
2021/07/10 13:22:44;;;;;;;9.38;7.32;;;21.80;75.10;;;;;;4929131;29;20031;-87
2021/07/10 13:25:13;;;;;;;7.65;6.32;;;21.90;75.30;;;;;;4929565;29;20028;-87
2021/07/10 13:27:38;;;;;;;9.77;6.30;;;21.90;74.90;;;;;;4929020;29;20032;-87
2021/07/10 13:30:13;;;;;;;9.68;6.75;;;22.00;75.80;;;;;;4930372;29;20035;-87
2021/07/10 13:32:39;;;;;;;6.90;6.03;;;22.10;75.00;;;;;;4930206;29;20032;-87
2021/07/10 13:35:09;;;;;;;9.95;7.00;;;22.20;74.10;;;;;;4930206;29;20035;-87
2021/07/10 13:37:34;;;;;;;8.20;6.65;;;22.30;73.20;;;;;;4930507;29;20024;-87
2021/07/10 13:40:18;;;;;;;9.50;6.70;;;22.50;71.30;;;;;;4929929;29;20031;-86
2021/07/10 13:42:54;;;;;;;8.82;6.10;;;22.60;69.50;;;;;;4930562;29;20479;-86
2021/07/10 13:45:20;;;;;;;7.20;6.20;;;22.80;70.30;;;;;;4930404;29;20030;-87
2021/07/10 13:47:45;;;;;;;10.10;6.40;;;22.90;70.10;;;;;;4930218;29;20395;-87
2021/07/10 13:50:14;;;;;;;10.55;6.15;;;23.00;69.60;;;;;;4929655;29;20031;-87
2021/07/10 13:52:42;;;;;;;6.97;5.68;;;23.00;68.60;;;;;;4929575;29;20079;-88
2021/07/10 13:55:11;;;;;;;8.07;5.90;;;23.10;68.40;;;;;;4931293;29;20032;-87
2021/07/10 13:57:50;;;;;;;9.13;6.68;;;23.10;68.30;;;;;;4932528;29;20039;-87
2021/07/10 14:00:28;;;;;;;6.97;5.90;;;23.20;68.00;;;;;;4932792;29;20024;-88
2021/07/10 14:02:56;;;;;;;8.57;6.28;;;23.20;67.80;;;;;;4932842;29;20031;-87
2021/07/10 14:05:34;;;;;;;12.15;7.22;;;23.20;67.60;;;;;;4932718;29;20032;-88
2021/07/10 14:08:02;;;;;;;10.25;7.07;;;23.20;65.40;;;;;;4932309;29;20169;-87
2021/07/10 14:10:29;;;;;;;9.85;6.55;;;23.30;62.80;;;;;;4932428;29;20691;-87
2021/07/10 14:12:55;;;;;;;7.38;6.25;;;23.40;63.10;;;;;;4932423;29;20111;-87
2021/07/10 14:15:21;;;;;;;7.85;6.45;;;23.40;65.30;;;;;;4932749;29;20065;-87
2021/07/10 14:17:47;;;;;;;9.23;5.60;;;23.40;64.30;;;;;;4932443;29;20898;-87
2021/07/10 14:20:14;;;;;;;9.27;6.70;;;23.40;65.10;;;;;;4932605;29;20031;-87
2021/07/10 14:22:40;;;;;;;9.95;6.28;;;23.40;64.90;;;;;;4932103;29;20066;-87
2021/07/10 14:25:09;;;;;;;11.90;6.82;;;23.30;63.90;;;;;;4932055;29;20066;-86
2021/07/10 14:27:35;;;;;;;7.88;5.30;;;23.30;64.80;;;;;;4931938;29;20040;-87
2021/07/10 14:30:00;;;;;;;9.07;6.05;;;23.30;66.10;;;;;;4932032;29;20806;-87
2021/07/10 14:32:28;;;;;;;7.85;5.82;;;23.20;66.60;;;;;;4931976;29;20036;-87
2021/07/10 14:34:57;;;;;;;8.20;5.55;;;23.20;66.10;;;;;;4932232;29;20093;-87
2021/07/10 14:37:23;;;;;;;7.15;6.07;;;23.30;65.30;;;;;;4931805;29;20032;-87
2021/07/10 14:39:48;;;;;;;7.05;5.90;;;23.20;66.90;;;;;;4931822;29;20558;-87
2021/07/10 14:42:14;;;;;;;6.10;5.50;;;23.20;66.90;;;;;;4931726;29;20040;-87
2021/07/10 14:44:40;;;;;;;9.60;5.78;;;23.20;67.90;;;;;;4931571;29;20822;-86
2021/07/10 14:47:05;;;;;;;7.15;6.07;;;23.10;68.10;;;;;;4931358;29;20171;-87
2021/07/10 14:49:31;;;;;;;7.45;6.07;;;23.10;67.90;;;;;;4947572;29;20114;-87
2021/07/10 14:51:56;;;;;;;8.32;6.20;;;23.10;67.00;;;;;;4931769;29;20032;-87
2021/07/10 14:54:22;;;;;;;5.82;5.25;;;23.10;66.60;;;;;;4931285;29;20467;-87
2021/07/10 14:56:47;;;;;;;6.80;5.93;;;23.00;66.30;;;;;;4931744;29;20522;-87
2021/07/10 14:59:13;;;;;;;9.77;6.22;;;23.00;67.20;;;;;;4931220;29;20031;-87
2021/07/10 15:01:39;;;;;;;7.80;5.88;;;23.00;67.10;;;;;;4931698;29;20122;-87
2021/07/10 15:04:04;;;;;;;5.97;5.38;;;22.90;67.60;;;;;;4931242;29;20042;-86
2021/07/10 15:06:30;;;;;;;8.30;6.30;;;22.90;68.30;;;;;;4930975;29;20032;-87